sensor_id;sensor_type;location;lat;lon;timestamp;temperature;humidity
2435;DHT22;1228;51.022;6.764;2022-11-15T00:01:34;9.70;99.90
2435;DHT22;1228;51.022;6.764;2022-11-15T00:03:59;9.70;99.90
2435;DHT22;1228;51.022;6.764;2022-11-15T00:06:25;9.70;99.90
2435;DHT22;1228;51.022;6.764;2022-11-15T00:08:50;9.80;99.90
2435;DHT22;1228;51.022;6.764;2022-11-15T00:11:16;9.80;99.90
2435;DHT22;1228;51.022;6.764;2022-11-15T00:13:41;9.80;99.90
2435;DHT22;1228;51.022;6.764;2022-11-15T00:16:09;9.80;99.90
2435;DHT22;1228;51.022;6.764;2022-11-15T00:18:34;9.80;99.90
2435;DHT22;1228;51.022;6.764;2022-11-15T00:21:09;9.80;99.90
2435;DHT22;1228;51.022;6.764;2022-11-15T00:23:35;9.90;99.90
2435;DHT22;1228;51.022;6.764;2022-11-15T00:26:01;9.90;99.90
2435;DHT22;1228;51.022;6.764;2022-11-15T00:28:26;9.90;99.90
2435;DHT22;1228;51.022;6.764;2022-11-15T00:30:53;10.00;99.90
2435;DHT22;1228;51.022;6.764;2022-11-15T00:33:18;10.00;99.90
2435;DHT22;1228;51.022;6.764;2022-11-15T00:35:44;10.00;99.90
2435;DHT22;1228;51.022;6.764;2022-11-15T00:38:10;10.00;99.90
2435;DHT22;1228;51.022;6.764;2022-11-15T00:40:36;10.10;99.90
2435;DHT22;1228;51.022;6.764;2022-11-15T00:43:01;10.10;99.90
2435;DHT22;1228;51.022;6.764;2022-11-15T00:45:27;10.10;99.90
2435;DHT22;1228;51.022;6.764;2022-11-15T00:47:52;10.10;99.90
2435;DHT22;1228;51.022;6.764;2022-11-15T00:50:18;10.20;99.90
2435;DHT22;1228;51.022;6.764;2022-11-15T00:52:44;10.20;99.90
2435;DHT22;1228;51.022;6.764;2022-11-15T00:55:15;10.20;99.90
2435;DHT22;1228;51.022;6.764;2022-11-15T00:57:40;10.30;99.90
2435;DHT22;1228;51.022;6.764;2022-11-15T01:00:07;10.30;99.90
2435;DHT22;1228;51.022;6.764;2022-11-15T01:02:33;10.30;99.90
2435;DHT22;1228;51.022;6.764;2022-11-15T01:04:59;10.40;99.90
2435;DHT22;1228;51.022;6.764;2022-11-15T01:07:25;10.40;99.90
2435;DHT22;1228;51.022;6.764;2022-11-15T01:09:50;10.50;99.90
2435;DHT22;1228;51.022;6.764;2022-11-15T01:12:16;10.50;99.90
2435;DHT22;1228;51.022;6.764;2022-11-15T01:14:41;10.50;99.90
2435;DHT22;1228;51.022;6.764;2022-11-15T01:17:07;10.60;99.90
2435;DHT22;1228;51.022;6.764;2022-11-15T01:19:33;10.60;99.90
2435;DHT22;1228;51.022;6.764;2022-11-15T01:21:58;10.60;99.90
2435;DHT22;1228;51.022;6.764;2022-11-15T01:24:24;10.60;99.90
2435;DHT22;1228;51.022;6.764;2022-11-15T01:26:49;10.60;99.90
2435;DHT22;1228;51.022;6.764;2022-11-15T01:29:15;10.60;99.90
2435;DHT22;1228;51.022;6.764;2022-11-15T01:31:41;10.70;99.90
2435;DHT22;1228;51.022;6.764;2022-11-15T01:34:06;10.70;99.90
2435;DHT22;1228;51.022;6.764;2022-11-15T01:36:32;10.70;99.90
2435;DHT22;1228;51.022;6.764;2022-11-15T01:38:58;10.70;99.90
2435;DHT22;1228;51.022;6.764;2022-11-15T01:41:30;10.80;99.90
2435;DHT22;1228;51.022;6.764;2022-11-15T01:44:28;10.90;99.90
2435;DHT22;1228;51.022;6.764;2022-11-15T01:46:46;10.90;99.90
2435;DHT22;1228;51.022;6.764;2022-11-15T01:49:18;10.90;99.90
2435;DHT22;1228;51.022;6.764;2022-11-15T01:51:45;10.90;99.90
2435;DHT22;1228;51.022;6.764;2022-11-15T01:54:14;11.00;99.90
2435;DHT22;1228;51.022;6.764;2022-11-15T01:56:45;11.00;99.90
2435;DHT22;1228;51.022;6.764;2022-11-15T01:59:13;11.00;99.90
2435;DHT22;1228;51.022;6.764;2022-11-15T02:01:39;11.00;99.90
2435;DHT22;1228;51.022;6.764;2022-11-15T02:04:07;11.00;99.90
2435;DHT22;1228;51.022;6.764;2022-11-15T02:06:35;11.10;99.90
2435;DHT22;1228;51.022;6.764;2022-11-15T02:09:02;11.10;99.90
2435;DHT22;1228;51.022;6.764;2022-11-15T02:11:28;11.10;99.90
2435;DHT22;1228;51.022;6.764;2022-11-15T02:13:54;11.10;99.90
2435;DHT22;1228;51.022;6.764;2022-11-15T02:27:30;11.20;99.90
2435;DHT22;1228;51.022;6.764;2022-11-15T02:30:33;11.20;99.90
2435;DHT22;1228;51.022;6.764;2022-11-15T02:38:32;11.40;99.90
2435;DHT22;1228;51.022;6.764;2022-11-15T02:41:04;11.40;99.90
2435;DHT22;1228;51.022;6.764;2022-11-15T02:43:44;11.40;99.90
2435;DHT22;1228;51.022;6.764;2022-11-15T02:49:14;11.50;99.90
2435;DHT22;1228;51.022;6.764;2022-11-15T02:51:41;11.50;99.90
2435;DHT22;1228;51.022;6.764;2022-11-15T02:54:09;11.50;99.90
2435;DHT22;1228;51.022;6.764;2022-11-15T02:56:35;11.50;99.90
2435;DHT22;1228;51.022;6.764;2022-11-15T02:59:17;11.50;99.90
2435;DHT22;1228;51.022;6.764;2022-11-15T03:10:19;11.60;99.90
2435;DHT22;1228;51.022;6.764;2022-11-15T03:13:24;11.60;99.90
2435;DHT22;1228;51.022;6.764;2022-11-15T03:16:24;11.60;99.90
2435;DHT22;1228;51.022;6.764;2022-11-15T03:21:52;11.70;99.90
2435;DHT22;1228;51.022;6.764;2022-11-15T03:24:20;11.70;99.90
2435;DHT22;1228;51.022;6.764;2022-11-15T03:26:48;11.70;99.90
2435;DHT22;1228;51.022;6.764;2022-11-15T03:29:19;11.80;99.90
2435;DHT22;1228;51.022;6.764;2022-11-15T03:31:51;11.80;99.90
2435;DHT22;1228;51.022;6.764;2022-11-15T03:37:13;11.90;99.90
2435;DHT22;1228;51.022;6.764;2022-11-15T03:39:40;11.80;99.90
2435;DHT22;1228;51.022;6.764;2022-11-15T03:42:28;11.80;99.90
2435;DHT22;1228;51.022;6.764;2022-11-15T03:44:59;11.90;99.90
2435;DHT22;1228;51.022;6.764;2022-11-15T03:47:34;11.90;99.90
2435;DHT22;1228;51.022;6.764;2022-11-15T03:50:12;11.90;99.90
2435;DHT22;1228;51.022;6.764;2022-11-15T03:52:40;11.90;99.90
2435;DHT22;1228;51.022;6.764;2022-11-15T03:55:09;12.00;99.90
2435;DHT22;1228;51.022;6.764;2022-11-15T03:57:36;12.00;99.90
2435;DHT22;1228;51.022;6.764;2022-11-15T04:00:03;12.00;99.90
2435;DHT22;1228;51.022;6.764;2022-11-15T04:02:29;12.00;99.90
2435;DHT22;1228;51.022;6.764;2022-11-15T04:04:54;11.90;99.90
2435;DHT22;1228;51.022;6.764;2022-11-15T04:07:20;11.90;99.90
2435;DHT22;1228;51.022;6.764;2022-11-15T04:09:45;11.90;99.90
2435;DHT22;1228;51.022;6.764;2022-11-15T04:12:32;11.80;99.90
2435;DHT22;1228;51.022;6.764;2022-11-15T04:15:06;11.80;99.90
2435;DHT22;1228;51.022;6.764;2022-11-15T04:17:47;11.70;99.90
2435;DHT22;1228;51.022;6.764;2022-11-15T04:20:27;11.70;99.90
2435;DHT22;1228;51.022;6.764;2022-11-15T04:23:20;11.70;99.90
2435;DHT22;1228;51.022;6.764;2022-11-15T04:28:35;11.60;99.90
2435;DHT22;1228;51.022;6.764;2022-11-15T04:31:21;11.60;99.90
2435;DHT22;1228;51.022;6.764;2022-11-15T04:33:46;11.60;99.90
2435;DHT22;1228;51.022;6.764;2022-11-15T04:36:12;11.60;99.90
2435;DHT22;1228;51.022;6.764;2022-11-15T04:38:56;11.60;99.90
2435;DHT22;1228;51.022;6.764;2022-11-15T04:41:21;11.60;99.90
2435;DHT22;1228;51.022;6.764;2022-11-15T04:43:47;11.60;99.90
2435;DHT22;1228;51.022;6.764;2022-11-15T04:46:12;11.60;99.90
2435;DHT22;1228;51.022;6.764;2022-11-15T04:48:38;11.60;99.90
2435;DHT22;1228;51.022;6.764;2022-11-15T04:51:04;11.60;99.90
2435;DHT22;1228;51.022;6.764;2022-11-15T04:53:29;11.60;99.90
2435;DHT22;1228;51.022;6.764;2022-11-15T04:55:55;11.60;99.90
2435;DHT22;1228;51.022;6.764;2022-11-15T04:58:20;11.60;99.90
2435;DHT22;1228;51.022;6.764;2022-11-15T05:00:46;11.60;99.90
2435;DHT22;1228;51.022;6.764;2022-11-15T05:03:12;11.60;99.90
2435;DHT22;1228;51.022;6.764;2022-11-15T05:05:58;11.50;99.90
2435;DHT22;1228;51.022;6.764;2022-11-15T05:08:24;11.60;99.90
2435;DHT22;1228;51.022;6.764;2022-11-15T05:10:49;11.60;99.90
2435;DHT22;1228;51.022;6.764;2022-11-15T05:13:15;11.60;99.90
2435;DHT22;1228;51.022;6.764;2022-11-15T05:15:41;11.60;99.90
2435;DHT22;1228;51.022;6.764;2022-11-15T05:18:06;11.60;99.90
2435;DHT22;1228;51.022;6.764;2022-11-15T05:20:32;11.60;99.90
2435;DHT22;1228;51.022;6.764;2022-11-15T05:22:57;11.50;99.90
2435;DHT22;1228;51.022;6.764;2022-11-15T05:25:23;11.60;99.90
2435;DHT22;1228;51.022;6.764;2022-11-15T05:27:49;11.50;99.90
2435;DHT22;1228;51.022;6.764;2022-11-15T05:30:15;11.60;99.90
2435;DHT22;1228;51.022;6.764;2022-11-15T05:32:42;11.60;99.90
2435;DHT22;1228;51.022;6.764;2022-11-15T05:35:16;11.50;99.90
2435;DHT22;1228;51.022;6.764;2022-11-15T05:37:44;11.50;99.90
2435;DHT22;1228;51.022;6.764;2022-11-15T05:40:09;11.50;99.90
2435;DHT22;1228;51.022;6.764;2022-11-15T05:42:35;11.50;99.90
2435;DHT22;1228;51.022;6.764;2022-11-15T05:45:03;11.60;99.90
2435;DHT22;1228;51.022;6.764;2022-11-15T05:47:30;11.50;99.90
2435;DHT22;1228;51.022;6.764;2022-11-15T05:49:57;11.60;99.90
2435;DHT22;1228;51.022;6.764;2022-11-15T05:52:27;11.60;99.90
2435;DHT22;1228;51.022;6.764;2022-11-15T05:54:54;11.50;99.90
2435;DHT22;1228;51.022;6.764;2022-11-15T05:57:21;11.50;99.90
2435;DHT22;1228;51.022;6.764;2022-11-15T05:59:46;11.50;99.90
2435;DHT22;1228;51.022;6.764;2022-11-15T06:02:12;11.50;99.90
2435;DHT22;1228;51.022;6.764;2022-11-15T06:04:38;11.50;99.90
2435;DHT22;1228;51.022;6.764;2022-11-15T06:07:04;11.50;99.90
2435;DHT22;1228;51.022;6.764;2022-11-15T06:09:29;11.40;99.90
2435;DHT22;1228;51.022;6.764;2022-11-15T06:11:55;11.40;99.90
2435;DHT22;1228;51.022;6.764;2022-11-15T06:14:20;11.40;99.90
2435;DHT22;1228;51.022;6.764;2022-11-15T06:16:46;11.40;99.90
2435;DHT22;1228;51.022;6.764;2022-11-15T06:19:11;11.30;99.90
2435;DHT22;1228;51.022;6.764;2022-11-15T06:21:37;11.20;99.90
2435;DHT22;1228;51.022;6.764;2022-11-15T06:24:03;11.20;99.90
2435;DHT22;1228;51.022;6.764;2022-11-15T06:26:28;11.10;99.90
2435;DHT22;1228;51.022;6.764;2022-11-15T06:28:54;11.00;99.90
2435;DHT22;1228;51.022;6.764;2022-11-15T06:31:20;10.90;99.90
2435;DHT22;1228;51.022;6.764;2022-11-15T06:33:46;10.80;99.90
2435;DHT22;1228;51.022;6.764;2022-11-15T06:36:12;10.70;99.90
2435;DHT22;1228;51.022;6.764;2022-11-15T06:38:43;10.70;99.90
2435;DHT22;1228;51.022;6.764;2022-11-15T06:41:10;10.60;99.90
2435;DHT22;1228;51.022;6.764;2022-11-15T06:43:37;10.60;99.90
2435;DHT22;1228;51.022;6.764;2022-11-15T06:46:03;10.60;99.90
2435;DHT22;1228;51.022;6.764;2022-11-15T06:48:30;10.70;99.90
2435;DHT22;1228;51.022;6.764;2022-11-15T06:50:58;10.70;99.90
2435;DHT22;1228;51.022;6.764;2022-11-15T06:53:26;10.70;99.90
2435;DHT22;1228;51.022;6.764;2022-11-15T06:55:51;10.70;99.90
2435;DHT22;1228;51.022;6.764;2022-11-15T06:58:17;10.70;99.90
2435;DHT22;1228;51.022;6.764;2022-11-15T07:00:43;10.70;99.90
2435;DHT22;1228;51.022;6.764;2022-11-15T07:03:09;10.70;99.90
2435;DHT22;1228;51.022;6.764;2022-11-15T07:05:35;10.70;99.90
2435;DHT22;1228;51.022;6.764;2022-11-15T07:08:01;10.70;99.90
2435;DHT22;1228;51.022;6.764;2022-11-15T07:10:27;10.70;99.90
2435;DHT22;1228;51.022;6.764;2022-11-15T07:12:54;10.70;99.90
2435;DHT22;1228;51.022;6.764;2022-11-15T07:15:22;10.70;99.90
2435;DHT22;1228;51.022;6.764;2022-11-15T07:17:48;10.80;99.90
2435;DHT22;1228;51.022;6.764;2022-11-15T07:20:14;10.80;99.90
2435;DHT22;1228;51.022;6.764;2022-11-15T07:22:40;10.90;99.90
2435;DHT22;1228;51.022;6.764;2022-11-15T07:25:07;10.90;99.90
2435;DHT22;1228;51.022;6.764;2022-11-15T07:27:33;10.90;99.90
2435;DHT22;1228;51.022;6.764;2022-11-15T07:29:58;11.00;99.90
2435;DHT22;1228;51.022;6.764;2022-11-15T07:32:24;11.00;99.90
2435;DHT22;1228;51.022;6.764;2022-11-15T07:34:49;11.00;99.90
2435;DHT22;1228;51.022;6.764;2022-11-15T07:37:15;11.10;99.90
2435;DHT22;1228;51.022;6.764;2022-11-15T07:39:42;11.10;99.90
2435;DHT22;1228;51.022;6.764;2022-11-15T07:42:08;11.10;99.90
2435;DHT22;1228;51.022;6.764;2022-11-15T07:44:52;11.20;99.90
2435;DHT22;1228;51.022;6.764;2022-11-15T07:47:17;11.20;99.90
2435;DHT22;1228;51.022;6.764;2022-11-15T07:49:43;11.20;99.90
2435;DHT22;1228;51.022;6.764;2022-11-15T07:52:09;11.20;99.90
2435;DHT22;1228;51.022;6.764;2022-11-15T07:54:34;11.20;99.90
2435;DHT22;1228;51.022;6.764;2022-11-15T07:57:00;11.20;99.90
2435;DHT22;1228;51.022;6.764;2022-11-15T07:59:25;11.30;99.90
2435;DHT22;1228;51.022;6.764;2022-11-15T08:01:51;11.30;99.90
2435;DHT22;1228;51.022;6.764;2022-11-15T08:04:16;11.20;99.90
2435;DHT22;1228;51.022;6.764;2022-11-15T08:06:42;11.20;99.90
2435;DHT22;1228;51.022;6.764;2022-11-15T08:09:08;11.20;99.90
2435;DHT22;1228;51.022;6.764;2022-11-15T08:11:33;11.20;99.90
2435;DHT22;1228;51.022;6.764;2022-11-15T08:13:59;11.30;99.90
2435;DHT22;1228;51.022;6.764;2022-11-15T08:16:24;11.30;99.90
2435;DHT22;1228;51.022;6.764;2022-11-15T08:18:50;11.30;99.90
2435;DHT22;1228;51.022;6.764;2022-11-15T08:21:19;11.40;99.90
2435;DHT22;1228;51.022;6.764;2022-11-15T08:23:45;11.40;99.90
2435;DHT22;1228;51.022;6.764;2022-11-15T08:26:11;11.50;99.90
2435;DHT22;1228;51.022;6.764;2022-11-15T08:28:37;11.50;99.90
2435;DHT22;1228;51.022;6.764;2022-11-15T08:31:03;11.60;99.90
2435;DHT22;1228;51.022;6.764;2022-11-15T08:33:30;11.70;99.90
2435;DHT22;1228;51.022;6.764;2022-11-15T08:35:57;11.90;99.90
2435;DHT22;1228;51.022;6.764;2022-11-15T08:38:23;12.00;99.90
2435;DHT22;1228;51.022;6.764;2022-11-15T08:40:51;12.10;99.90
2435;DHT22;1228;51.022;6.764;2022-11-15T08:43:17;12.20;99.90
2435;DHT22;1228;51.022;6.764;2022-11-15T08:45:42;12.40;99.90
2435;DHT22;1228;51.022;6.764;2022-11-15T08:48:08;12.60;99.90
2435;DHT22;1228;51.022;6.764;2022-11-15T08:50:34;12.70;99.90
2435;DHT22;1228;51.022;6.764;2022-11-15T08:53:07;12.80;99.90
2435;DHT22;1228;51.022;6.764;2022-11-15T08:55:38;13.00;99.90
2435;DHT22;1228;51.022;6.764;2022-11-15T08:58:04;13.10;99.90
2435;DHT22;1228;51.022;6.764;2022-11-15T09:00:30;13.20;99.90
2435;DHT22;1228;51.022;6.764;2022-11-15T09:02:55;13.30;99.90
2435;DHT22;1228;51.022;6.764;2022-11-15T09:05:21;13.50;99.90
2435;DHT22;1228;51.022;6.764;2022-11-15T09:07:47;13.70;99.90
2435;DHT22;1228;51.022;6.764;2022-11-15T09:10:12;13.80;99.90
2435;DHT22;1228;51.022;6.764;2022-11-15T09:12:38;14.00;99.90
2435;DHT22;1228;51.022;6.764;2022-11-15T09:15:05;14.20;99.90
2435;DHT22;1228;51.022;6.764;2022-11-15T09:17:31;14.50;99.90
2435;DHT22;1228;51.022;6.764;2022-11-15T09:19:56;14.80;51.70
2435;DHT22;1228;51.022;6.764;2022-11-15T09:22:22;15.00;41.10
2435;DHT22;1228;51.022;6.764;2022-11-15T09:24:47;15.30;23.90
2435;DHT22;1228;51.022;6.764;2022-11-15T09:27:13;15.50;1.90
2435;DHT22;1228;51.022;6.764;2022-11-15T09:29:39;15.70;1.00
2435;DHT22;1228;51.022;6.764;2022-11-15T09:32:04;15.60;1.00
2435;DHT22;1228;51.022;6.764;2022-11-15T09:34:30;15.50;1.00
2435;DHT22;1228;51.022;6.764;2022-11-15T09:36:55;15.50;12.30
2435;DHT22;1228;51.022;6.764;2022-11-15T09:39:21;15.60;1.00
2435;DHT22;1228;51.022;6.764;2022-11-15T09:42:09;15.80;1.00
2435;DHT22;1228;51.022;6.764;2022-11-15T09:47:27;16.10;1.00
2435;DHT22;1228;51.022;6.764;2022-11-15T09:49:58;16.00;1.00
2435;DHT22;1228;51.022;6.764;2022-11-15T09:52:24;15.70;99.90
2435;DHT22;1228;51.022;6.764;2022-11-15T09:54:51;15.40;99.90
2435;DHT22;1228;51.022;6.764;2022-11-15T09:57:31;15.30;1.00
2435;DHT22;1228;51.022;6.764;2022-11-15T10:05:24;15.20;1.00
2435;DHT22;1228;51.022;6.764;2022-11-15T10:10:53;15.20;27.60
2435;DHT22;1228;51.022;6.764;2022-11-15T10:13:28;15.20;93.70
2435;DHT22;1228;51.022;6.764;2022-11-15T10:21:48;15.30;1.00
2435;DHT22;1228;51.022;6.764;2022-11-15T10:24:19;15.30;1.00
2435;DHT22;1228;51.022;6.764;2022-11-15T10:26:48;15.40;1.00
2435;DHT22;1228;51.022;6.764;2022-11-15T10:29:21;15.50;1.00
2435;DHT22;1228;51.022;6.764;2022-11-15T10:31:47;15.60;1.00
2435;DHT22;1228;51.022;6.764;2022-11-15T10:34:19;15.60;1.00
2435;DHT22;1228;51.022;6.764;2022-11-15T10:36:58;15.60;1.00
2435;DHT22;1228;51.022;6.764;2022-11-15T10:39:25;15.50;1.00
2435;DHT22;1228;51.022;6.764;2022-11-15T10:41:51;15.50;1.00
2435;DHT22;1228;51.022;6.764;2022-11-15T10:44:18;15.60;1.00
2435;DHT22;1228;51.022;6.764;2022-11-15T10:47:06;15.70;1.00
2435;DHT22;1228;51.022;6.764;2022-11-15T10:49:33;15.80;1.00
2435;DHT22;1228;51.022;6.764;2022-11-15T10:57:20;15.90;1.00
2435;DHT22;1228;51.022;6.764;2022-11-15T10:59:52;15.80;1.00
2435;DHT22;1228;51.022;6.764;2022-11-15T11:04:56;16.00;1.00
2435;DHT22;1228;51.022;6.764;2022-11-15T11:07:30;16.10;1.00
2435;DHT22;1228;51.022;6.764;2022-11-15T11:10:05;16.10;1.00
2435;DHT22;1228;51.022;6.764;2022-11-15T11:12:42;16.20;1.00
2435;DHT22;1228;51.022;6.764;2022-11-15T11:15:13;16.20;1.00
2435;DHT22;1228;51.022;6.764;2022-11-15T11:20:39;16.00;1.00
2435;DHT22;1228;51.022;6.764;2022-11-15T11:23:33;16.00;1.00
2435;DHT22;1228;51.022;6.764;2022-11-15T11:26:05;15.90;1.00
2435;DHT22;1228;51.022;6.764;2022-11-15T11:28:53;15.60;1.00
2435;DHT22;1228;51.022;6.764;2022-11-15T11:37:12;15.80;1.00
2435;DHT22;1228;51.022;6.764;2022-11-15T11:42:39;16.20;1.00
2435;DHT22;1228;51.022;6.764;2022-11-15T11:48:13;16.50;1.00
2435;DHT22;1228;51.022;6.764;2022-11-15T11:50:41;16.60;1.00
2435;DHT22;1228;51.022;6.764;2022-11-15T11:53:37;16.70;1.00
2435;DHT22;1228;51.022;6.764;2022-11-15T11:56:16;16.70;1.00
2435;DHT22;1228;51.022;6.764;2022-11-15T11:58:44;16.40;1.00
2435;DHT22;1228;51.022;6.764;2022-11-15T12:01:22;16.20;1.00
2435;DHT22;1228;51.022;6.764;2022-11-15T12:04:18;16.10;1.00
2435;DHT22;1228;51.022;6.764;2022-11-15T12:09:27;16.00;1.00
2435;DHT22;1228;51.022;6.764;2022-11-15T12:14:51;16.10;1.00
2435;DHT22;1228;51.022;6.764;2022-11-15T12:17:23;16.10;1.00
2435;DHT22;1228;51.022;6.764;2022-11-15T12:19:49;16.20;1.00
2435;DHT22;1228;51.022;6.764;2022-11-15T12:22:21;16.30;1.00
2435;DHT22;1228;51.022;6.764;2022-11-15T12:25:04;16.50;1.00
2435;DHT22;1228;51.022;6.764;2022-11-15T12:31:00;16.30;1.00
2435;DHT22;1228;51.022;6.764;2022-11-15T12:36:04;15.80;1.00
2435;DHT22;1228;51.022;6.764;2022-11-15T12:41:19;15.50;1.00
2435;DHT22;1228;51.022;6.764;2022-11-15T12:43:47;15.70;1.00
2435;DHT22;1228;51.022;6.764;2022-11-15T12:48:53;15.90;1.00
2435;DHT22;1228;51.022;6.764;2022-11-15T13:17:50;15.60;1.00
2435;DHT22;1228;51.022;6.764;2022-11-15T13:22:51;15.60;1.00
2435;DHT22;1228;51.022;6.764;2022-11-15T13:33:30;15.40;1.00
2435;DHT22;1228;51.022;6.764;2022-11-15T13:36:02;15.30;1.00
2435;DHT22;1228;51.022;6.764;2022-11-15T13:38:31;15.10;1.00
2435;DHT22;1228;51.022;6.764;2022-11-15T13:40:58;15.10;1.00
2435;DHT22;1228;51.022;6.764;2022-11-15T13:43:31;15.00;1.00
2435;DHT22;1228;51.022;6.764;2022-11-15T13:46:05;14.90;1.00
2435;DHT22;1228;51.022;6.764;2022-11-15T13:48:31;14.90;1.00
2435;DHT22;1228;51.022;6.764;2022-11-15T13:51:00;14.80;1.00
2435;DHT22;1228;51.022;6.764;2022-11-15T13:53:26;14.80;1.00
2435;DHT22;1228;51.022;6.764;2022-11-15T13:55:53;14.70;1.00
2435;DHT22;1228;51.022;6.764;2022-11-15T13:58:21;14.70;1.00
2435;DHT22;1228;51.022;6.764;2022-11-15T14:00:47;14.80;1.00
2435;DHT22;1228;51.022;6.764;2022-11-15T14:03:15;14.80;1.00
2435;DHT22;1228;51.022;6.764;2022-11-15T14:05:44;14.80;1.00
2435;DHT22;1228;51.022;6.764;2022-11-15T14:10:41;14.70;1.00
2435;DHT22;1228;51.022;6.764;2022-11-15T14:13:29;14.70;1.00
2435;DHT22;1228;51.022;6.764;2022-11-15T14:16:18;14.60;12.60
2435;DHT22;1228;51.022;6.764;2022-11-15T14:18:49;14.60;99.90
2435;DHT22;1228;51.022;6.764;2022-11-15T14:21:16;14.60;99.90
2435;DHT22;1228;51.022;6.764;2022-11-15T14:23:42;14.70;99.90
2435;DHT22;1228;51.022;6.764;2022-11-15T14:26:28;14.60;99.90
2435;DHT22;1228;51.022;6.764;2022-11-15T14:28:54;14.60;1.00
2435;DHT22;1228;51.022;6.764;2022-11-15T14:31:20;14.60;17.20
2435;DHT22;1228;51.022;6.764;2022-11-15T14:33:46;14.50;99.90
2435;DHT22;1228;51.022;6.764;2022-11-15T14:36:14;14.50;99.90
2435;DHT22;1228;51.022;6.764;2022-11-15T14:38:40;14.50;1.00
2435;DHT22;1228;51.022;6.764;2022-11-15T14:41:22;14.50;1.00
2435;DHT22;1228;51.022;6.764;2022-11-15T14:43:48;14.50;1.00
2435;DHT22;1228;51.022;6.764;2022-11-15T14:46:14;14.50;1.00
2435;DHT22;1228;51.022;6.764;2022-11-15T14:48:40;14.50;1.00
2435;DHT22;1228;51.022;6.764;2022-11-15T14:51:16;14.50;1.00
2435;DHT22;1228;51.022;6.764;2022-11-15T14:53:43;14.50;1.00
2435;DHT22;1228;51.022;6.764;2022-11-15T14:56:10;14.40;1.00
2435;DHT22;1228;51.022;6.764;2022-11-15T14:58:35;14.40;1.00
2435;DHT22;1228;51.022;6.764;2022-11-15T15:01:16;14.40;1.00
2435;DHT22;1228;51.022;6.764;2022-11-15T15:03:42;14.30;99.90
2435;DHT22;1228;51.022;6.764;2022-11-15T15:06:09;14.30;99.90
2435;DHT22;1228;51.022;6.764;2022-11-15T15:08:35;14.30;1.00
2435;DHT22;1228;51.022;6.764;2022-11-15T15:11:00;14.30;1.00
2435;DHT22;1228;51.022;6.764;2022-11-15T15:13:26;14.20;1.00
2435;DHT22;1228;51.022;6.764;2022-11-15T15:15:54;14.20;1.00
2435;DHT22;1228;51.022;6.764;2022-11-15T15:18:19;14.20;25.20
2435;DHT22;1228;51.022;6.764;2022-11-15T15:20:50;14.20;99.90
2435;DHT22;1228;51.022;6.764;2022-11-15T15:23:21;14.20;99.90
2435;DHT22;1228;51.022;6.764;2022-11-15T15:25:48;14.10;99.90
2435;DHT22;1228;51.022;6.764;2022-11-15T15:28:18;14.10;1.00
2435;DHT22;1228;51.022;6.764;2022-11-15T15:30:43;14.00;1.00
2435;DHT22;1228;51.022;6.764;2022-11-15T15:33:09;14.00;1.00
2435;DHT22;1228;51.022;6.764;2022-11-15T15:35:35;14.00;1.00
2435;DHT22;1228;51.022;6.764;2022-11-15T15:38:01;14.00;99.90
2435;DHT22;1228;51.022;6.764;2022-11-15T15:40:29;14.00;99.90
2435;DHT22;1228;51.022;6.764;2022-11-15T15:42:55;14.00;99.90
2435;DHT22;1228;51.022;6.764;2022-11-15T15:45:20;14.00;99.90
2435;DHT22;1228;51.022;6.764;2022-11-15T15:47:46;14.00;1.00
2435;DHT22;1228;51.022;6.764;2022-11-15T15:52:47;13.90;1.00
2435;DHT22;1228;51.022;6.764;2022-11-15T15:55:12;13.90;11.70
2435;DHT22;1228;51.022;6.764;2022-11-15T15:57:38;13.80;99.90
2435;DHT22;1228;51.022;6.764;2022-11-15T16:00:05;13.80;99.90
2435;DHT22;1228;51.022;6.764;2022-11-15T16:02:30;13.80;99.90
2435;DHT22;1228;51.022;6.764;2022-11-15T16:04:57;13.70;1.00
2435;DHT22;1228;51.022;6.764;2022-11-15T16:07:22;13.70;1.00
2435;DHT22;1228;51.022;6.764;2022-11-15T16:09:51;13.70;1.00
2435;DHT22;1228;51.022;6.764;2022-11-15T16:12:28;13.80;1.00
2435;DHT22;1228;51.022;6.764;2022-11-15T16:14:55;13.80;1.00
2435;DHT22;1228;51.022;6.764;2022-11-15T16:17:23;13.80;99.90
2435;DHT22;1228;51.022;6.764;2022-11-15T16:19:50;13.80;99.90
2435;DHT22;1228;51.022;6.764;2022-11-15T16:22:15;13.80;99.90
2435;DHT22;1228;51.022;6.764;2022-11-15T16:24:41;13.80;99.90
2435;DHT22;1228;51.022;6.764;2022-11-15T16:27:19;13.90;99.90
2435;DHT22;1228;51.022;6.764;2022-11-15T16:29:46;13.90;99.90
2435;DHT22;1228;51.022;6.764;2022-11-15T16:32:12;13.80;99.90
2435;DHT22;1228;51.022;6.764;2022-11-15T16:34:38;13.90;99.90
2435;DHT22;1228;51.022;6.764;2022-11-15T16:37:04;13.90;99.90
2435;DHT22;1228;51.022;6.764;2022-11-15T16:39:29;13.90;99.90
2435;DHT22;1228;51.022;6.764;2022-11-15T16:41:58;13.80;99.90
2435;DHT22;1228;51.022;6.764;2022-11-15T16:44:25;13.80;99.90
2435;DHT22;1228;51.022;6.764;2022-11-15T16:46:51;13.80;1.00
2435;DHT22;1228;51.022;6.764;2022-11-15T16:49:18;13.80;1.00
2435;DHT22;1228;51.022;6.764;2022-11-15T16:51:48;13.80;1.00
2435;DHT22;1228;51.022;6.764;2022-11-15T16:54:15;13.80;1.00
2435;DHT22;1228;51.022;6.764;2022-11-15T16:56:42;13.80;1.00
2435;DHT22;1228;51.022;6.764;2022-11-15T16:59:14;13.80;1.00
2435;DHT22;1228;51.022;6.764;2022-11-15T17:01:41;13.70;1.00
2435;DHT22;1228;51.022;6.764;2022-11-15T17:04:12;13.80;1.00
2435;DHT22;1228;51.022;6.764;2022-11-15T17:06:39;13.70;1.00
2435;DHT22;1228;51.022;6.764;2022-11-15T17:09:06;13.80;1.00
2435;DHT22;1228;51.022;6.764;2022-11-15T17:11:32;13.80;1.00
2435;DHT22;1228;51.022;6.764;2022-11-15T17:13:58;13.70;1.00
2435;DHT22;1228;51.022;6.764;2022-11-15T17:16:25;13.70;1.00
2435;DHT22;1228;51.022;6.764;2022-11-15T17:18:52;13.70;1.00
2435;DHT22;1228;51.022;6.764;2022-11-15T17:21:20;13.70;1.00
2435;DHT22;1228;51.022;6.764;2022-11-15T17:23:46;13.70;1.00
2435;DHT22;1228;51.022;6.764;2022-11-15T17:26:14;13.70;1.00
2435;DHT22;1228;51.022;6.764;2022-11-15T17:28:40;13.60;1.00
2435;DHT22;1228;51.022;6.764;2022-11-15T17:31:08;13.50;45.50
2435;DHT22;1228;51.022;6.764;2022-11-15T17:33:34;13.50;99.90
2435;DHT22;1228;51.022;6.764;2022-11-15T17:36:01;13.40;99.90
2435;DHT22;1228;51.022;6.764;2022-11-15T17:38:28;13.40;99.90
2435;DHT22;1228;51.022;6.764;2022-11-15T17:41:01;13.30;99.90
2435;DHT22;1228;51.022;6.764;2022-11-15T17:43:28;13.30;99.90
2435;DHT22;1228;51.022;6.764;2022-11-15T17:45:54;13.20;99.90
2435;DHT22;1228;51.022;6.764;2022-11-15T17:48:19;13.10;99.90
2435;DHT22;1228;51.022;6.764;2022-11-15T17:50:57;13.10;99.90
2435;DHT22;1228;51.022;6.764;2022-11-15T17:53:24;13.00;99.90
2435;DHT22;1228;51.022;6.764;2022-11-15T17:55:50;12.90;99.90
2435;DHT22;1228;51.022;6.764;2022-11-15T17:58:16;12.80;99.90
2435;DHT22;1228;51.022;6.764;2022-11-15T18:00:45;12.70;99.90
2435;DHT22;1228;51.022;6.764;2022-11-15T18:03:12;12.60;99.90
2435;DHT22;1228;51.022;6.764;2022-11-15T18:05:38;12.50;99.90
2435;DHT22;1228;51.022;6.764;2022-11-15T18:08:05;12.30;99.90
2435;DHT22;1228;51.022;6.764;2022-11-15T18:10:30;12.30;99.90
2435;DHT22;1228;51.022;6.764;2022-11-15T18:12:56;12.30;99.90
2435;DHT22;1228;51.022;6.764;2022-11-15T18:15:22;12.20;99.90
2435;DHT22;1228;51.022;6.764;2022-11-15T18:17:47;12.10;99.90
2435;DHT22;1228;51.022;6.764;2022-11-15T18:20:13;12.10;99.90
2435;DHT22;1228;51.022;6.764;2022-11-15T18:22:38;12.00;99.90
2435;DHT22;1228;51.022;6.764;2022-11-15T18:25:04;12.00;99.90
2435;DHT22;1228;51.022;6.764;2022-11-15T18:27:30;12.00;99.90
2435;DHT22;1228;51.022;6.764;2022-11-15T18:29:55;12.00;99.90
2435;DHT22;1228;51.022;6.764;2022-11-15T18:32:21;11.90;99.90